createdAt,value
2022-07-27T00:01:35.850Z,12.30
2022-07-27T00:04:06.949Z,14.00
2022-07-27T00:06:37.777Z,12.10
2022-07-27T00:09:08.498Z,12.00
2022-07-27T00:11:39.370Z,19.60
2022-07-27T00:14:09.788Z,11.40
2022-07-27T00:16:40.321Z,14.40
2022-07-27T00:19:11.730Z,16.50
2022-07-27T00:21:44.757Z,14.40
2022-07-27T00:24:17.424Z,14.30
2022-07-27T00:26:47.849Z,13.60
2022-07-27T00:29:19.084Z,13.40
2022-07-27T00:31:49.555Z,13.50
2022-07-27T00:34:20.651Z,13.80
2022-07-27T00:36:50.974Z,15.00
2022-07-27T00:39:21.851Z,12.50
2022-07-27T00:41:52.391Z,13.90
2022-07-27T00:44:27.885Z,13.40
2022-07-27T00:46:58.936Z,13.20
2022-07-27T00:49:30.454Z,15.90
2022-07-27T00:52:01.009Z,13.00
2022-07-27T00:54:32.215Z,14.00
2022-07-27T00:57:03.346Z,12.00
2022-07-27T00:59:34.638Z,12.80
2022-07-27T01:02:05.104Z,13.90
2022-07-27T01:04:42.997Z,12.40
2022-07-27T01:07:17.084Z,10.80
2022-07-27T01:10:00.070Z,12.80
2022-07-27T01:12:32.521Z,11.50
2022-07-27T01:15:03.412Z,12.80
2022-07-27T01:17:34.041Z,12.50
2022-07-27T01:20:06.114Z,12.30
2022-07-27T01:22:36.531Z,10.60
2022-07-27T01:25:07.963Z,10.70
2022-07-27T01:27:38.407Z,16.00
2022-07-27T01:30:26.956Z,11.80
2022-07-27T01:33:02.193Z,9.50
2022-07-27T01:35:33.547Z,9.10
2022-07-27T01:38:04.120Z,9.90
2022-07-27T01:40:37.167Z,8.60
2022-07-27T01:43:07.522Z,9.70
2022-07-27T01:45:38.473Z,10.30
2022-07-27T01:48:09.686Z,8.50
2022-07-27T01:50:41.425Z,11.70
2022-07-27T01:53:18.094Z,10.90
2022-07-27T01:55:49.162Z,12.90
2022-07-27T01:58:19.978Z,13.60
2022-07-27T02:00:51.318Z,15.50
2022-07-27T02:03:21.682Z,13.20
2022-07-27T02:05:52.710Z,13.90
2022-07-27T02:08:23.354Z,17.50
2022-07-27T02:11:12.076Z,14.60
2022-07-27T02:13:44.344Z,15.10
2022-07-27T02:16:17.179Z,19.10
2022-07-27T02:18:48.887Z,13.10
2022-07-27T02:21:19.850Z,14.20
2022-07-27T02:23:50.252Z,13.70
2022-07-27T02:26:21.115Z,15.70
2022-07-27T02:28:51.395Z,15.80
2022-07-27T02:31:22.137Z,15.00
2022-07-27T02:33:52.560Z,13.90
2022-07-27T02:36:23.523Z,14.10
2022-07-27T02:38:53.878Z,15.50
2022-07-27T02:41:25.071Z,14.40
2022-07-27T02:43:55.494Z,13.00
2022-07-27T02:46:26.448Z,12.80
2022-07-27T02:48:57.122Z,14.50
2022-07-27T02:51:27.980Z,13.00
2022-07-27T02:53:58.626Z,13.60
2022-07-27T02:56:30.331Z,12.60
2022-07-27T02:59:01.123Z,9.10
2022-07-27T03:01:32.055Z,9.70
2022-07-27T03:04:02.649Z,9.30
2022-07-27T03:06:33.341Z,10.90
2022-07-27T03:09:03.945Z,11.40
2022-07-27T03:11:34.986Z,10.80
2022-07-27T03:14:05.408Z,11.60
2022-07-27T03:16:36.312Z,12.40
2022-07-27T03:19:06.985Z,9.40
2022-07-27T03:21:37.916Z,8.90
2022-07-27T03:24:09.024Z,11.40
2022-07-27T03:26:39.501Z,11.70
2022-07-27T03:29:10.085Z,13.10
2022-07-27T03:31:40.905Z,11.30
2022-07-27T03:34:11.588Z,9.20
2022-07-27T03:36:43.551Z,15.70
2022-07-27T03:39:14.326Z,10.90
2022-07-27T03:41:45.431Z,10.10
2022-07-27T03:44:15.852Z,8.90
2022-07-27T03:46:46.790Z,10.50
2022-07-27T03:49:17.349Z,8.80
2022-07-27T03:51:48.362Z,11.00
2022-07-27T03:54:19.100Z,12.20
2022-07-27T03:56:50.341Z,12.50
2022-07-27T03:59:20.727Z,12.40
2022-07-27T04:01:51.899Z,11.70
2022-07-27T04:04:22.330Z,14.40
2022-07-27T04:06:53.387Z,9.50
2022-07-27T04:09:25.086Z,11.10
2022-07-27T04:11:57.802Z,12.60
2022-07-27T04:14:30.733Z,11.10
2022-07-27T04:17:01.920Z,8.60
2022-07-27T04:19:32.463Z,11.30
2022-07-27T04:22:03.810Z,9.80
2022-07-27T04:24:34.186Z,10.90
2022-07-27T04:27:05.003Z,9.80
2022-07-27T04:29:35.494Z,8.80
2022-07-27T04:32:07.245Z,11.40
2022-07-27T04:34:37.678Z,12.90
2022-07-27T04:37:08.521Z,10.90
2022-07-27T04:39:39.040Z,9.10
2022-07-27T04:42:10.493Z,12.60
2022-07-27T04:44:40.964Z,10.60
2022-07-27T04:47:11.853Z,10.20
2022-07-27T04:49:42.326Z,12.10
2022-07-27T04:52:15.479Z,10.00
2022-07-27T04:54:46.001Z,10.90
2022-07-27T04:57:16.951Z,12.60
2022-07-27T04:59:47.543Z,11.80
2022-07-27T05:02:18.510Z,12.40
2022-07-27T05:04:48.942Z,10.70
2022-07-27T05:07:19.873Z,9.90
2022-07-27T05:09:50.338Z,9.00
2022-07-27T05:12:21.952Z,10.70
2022-07-27T05:14:52.795Z,11.30
2022-07-27T05:17:23.918Z,10.80
2022-07-27T05:19:54.203Z,11.20
2022-07-27T05:22:24.989Z,11.90
2022-07-27T05:24:55.312Z,10.10
2022-07-27T05:27:26.351Z,12.90
2022-07-27T05:29:56.622Z,12.70
2022-07-27T05:32:27.599Z,15.50
2022-07-27T05:34:57.946Z,12.90
2022-07-27T05:37:28.872Z,15.50
2022-07-27T05:39:59.611Z,10.90
2022-07-27T05:42:30.749Z,16.70
2022-07-27T05:45:01.185Z,13.90
2022-07-27T05:47:31.884Z,12.80
2022-07-27T05:50:03.367Z,17.30
2022-07-27T05:52:34.967Z,16.70
2022-07-27T05:55:05.863Z,16.90
2022-07-27T05:57:36.906Z,16.50
2022-07-27T06:00:08.678Z,17.60
2022-07-27T06:02:45.169Z,19.30
2022-07-27T06:05:17.192Z,20.60
2022-07-27T06:08:01.031Z,26.10
2022-07-27T06:10:32.602Z,18.00
2022-07-27T06:13:03.942Z,20.20
2022-07-27T06:15:34.744Z,20.20
2022-07-27T06:18:07.092Z,20.80
2022-07-27T06:20:37.391Z,19.90
2022-07-27T06:23:09.161Z,19.60
2022-07-27T06:25:39.630Z,19.30
2022-07-27T06:28:10.506Z,20.60
2022-07-27T06:30:43.360Z,16.60
2022-07-27T06:33:14.392Z,19.80
2022-07-27T06:35:45.121Z,17.10
2022-07-27T06:38:19.346Z,20.00
2022-07-27T06:40:52.973Z,21.40
2022-07-27T06:43:24.093Z,25.30
2022-07-27T06:46:01.873Z,25.20
2022-07-27T06:48:36.476Z,20.00
2022-07-27T06:53:36.471Z,20.70
2022-07-27T06:56:10.075Z,21.00
2022-07-27T06:58:40.875Z,20.70
2022-07-27T07:01:11.324Z,23.60
2022-07-27T07:03:42.346Z,23.40
2022-07-27T07:06:13.071Z,26.30
2022-07-27T07:08:43.904Z,24.00
2022-07-27T07:11:14.437Z,25.30
2022-07-27T07:13:45.258Z,24.30
2022-07-27T07:16:16.611Z,22.40
2022-07-27T07:18:52.066Z,21.40
2022-07-27T07:21:23.206Z,24.30
2022-07-27T07:23:54.139Z,24.50
2022-07-27T07:26:24.666Z,24.70
2022-07-27T07:28:55.630Z,21.90
2022-07-27T07:31:26.385Z,21.00
2022-07-27T07:33:57.220Z,23.10
2022-07-27T07:36:27.920Z,21.20
2022-07-27T07:39:00.600Z,21.10
2022-07-27T07:41:31.119Z,21.80
2022-07-27T07:44:02.066Z,21.70
2022-07-27T07:46:32.935Z,18.60
2022-07-27T07:49:03.987Z,18.40
2022-07-27T07:51:34.763Z,16.40
2022-07-27T07:54:07.138Z,17.80
2022-07-27T07:56:37.901Z,16.50
2022-07-27T07:59:09.010Z,22.00
2022-07-27T08:01:39.839Z,18.80
2022-07-27T08:04:10.679Z,18.90
2022-07-27T08:06:41.071Z,18.80
2022-07-27T08:09:13.455Z,21.00
2022-07-27T08:11:44.164Z,21.50
2022-07-27T08:14:14.889Z,19.90
2022-07-27T08:16:45.492Z,22.40
2022-07-27T08:19:19.952Z,17.60
2022-07-27T08:21:50.539Z,17.00
2022-07-27T08:24:21.572Z,15.60
2022-07-27T08:26:52.098Z,17.80
2022-07-27T08:29:23.311Z,17.60
2022-07-27T08:31:54.212Z,15.60
2022-07-27T08:36:55.847Z,14.30
2022-07-27T08:40:20.113Z,17.80
2022-07-27T08:42:18.406Z,16.00
2022-07-27T08:44:48.885Z,16.60
2022-07-27T08:47:20.969Z,14.30
2022-07-27T08:49:51.275Z,15.70
2022-07-27T08:52:22.942Z,14.10
2022-07-27T08:54:53.655Z,15.10
2022-07-27T08:57:24.857Z,14.70
2022-07-27T08:59:56.957Z,16.70
2022-07-27T09:02:27.890Z,15.50
2022-07-27T09:04:58.385Z,18.10
2022-07-27T09:07:31.927Z,15.50
2022-07-27T09:10:03.235Z,15.50
2022-07-27T09:12:34.370Z,13.70
2022-07-27T09:15:09.562Z,14.60
2022-07-27T09:17:49.946Z,14.90
2022-07-27T09:20:21.949Z,17.30
2022-07-27T09:22:53.917Z,12.30
2022-07-27T09:25:52.130Z,16.00
2022-07-27T09:28:18.748Z,13.70
2022-07-27T09:30:49.433Z,14.70
2022-07-27T09:33:20.173Z,17.00
2022-07-27T09:35:58.728Z,12.20
2022-07-27T09:38:29.627Z,15.70
2022-07-27T09:41:01.968Z,16.10
2022-07-27T09:46:32.297Z,11.80
2022-07-27T09:49:04.091Z,14.30
2022-07-27T09:52:02.231Z,13.50
2022-07-27T09:54:47.685Z,12.80
2022-07-27T09:57:18.631Z,13.40
2022-07-27T09:59:49.516Z,10.60
2022-07-27T10:02:20.244Z,14.80
2022-07-27T10:04:51.470Z,12.30
2022-07-27T10:07:21.930Z,13.00
2022-07-27T10:09:52.716Z,15.20
2022-07-27T10:12:23.741Z,11.00
2022-07-27T10:14:54.471Z,14.40
2022-07-27T10:17:25.526Z,13.70
2022-07-27T10:19:57.852Z,12.60
2022-07-27T10:22:41.590Z,13.50
2022-07-27T10:25:12.533Z,13.00
2022-07-27T10:27:43.054Z,14.40
2022-07-27T10:30:15.013Z,12.90
2022-07-27T10:32:47.383Z,11.90
2022-07-27T10:35:34.206Z,14.00
2022-07-27T10:38:09.893Z,13.10
2022-07-27T10:40:40.680Z,12.40
2022-07-27T10:43:18.475Z,14.00
2022-07-27T11:00:12.385Z,10.80
2022-07-27T11:02:43.949Z,10.00
2022-07-27T11:05:58.141Z,9.60
2022-07-27T11:08:35.681Z,12.80
2022-07-27T11:10:56.958Z,13.00
2022-07-27T11:13:32.010Z,10.90
2022-07-27T11:16:26.238Z,13.40
2022-07-27T11:18:58.852Z,11.20
2022-07-27T11:23:59.947Z,11.10
2022-07-27T11:26:32.182Z,10.40
2022-07-27T11:29:03.318Z,10.90
2022-07-27T11:31:54.126Z,9.70
2022-07-27T11:34:29.870Z,9.80
2022-07-27T11:37:02.363Z,8.10
2022-07-27T11:42:23.448Z,8.00
2022-07-27T11:44:54.921Z,7.20
2022-07-27T11:47:26.678Z,7.50
2022-07-27T11:50:05.384Z,9.60
2022-07-27T11:52:36.346Z,8.90
2022-07-27T11:55:08.013Z,8.00
2022-07-27T11:57:39.267Z,10.40
2022-07-27T12:00:11.896Z,12.60
2022-07-27T12:02:50.557Z,9.20
2022-07-27T12:05:21.080Z,9.60
2022-07-27T12:07:51.752Z,10.00
2022-07-27T12:10:23.108Z,8.90
2022-07-27T12:12:54.242Z,12.20
2022-07-27T12:18:15.518Z,9.00
2022-07-27T12:20:48.995Z,9.10
2022-07-27T12:23:20.157Z,8.30
2022-07-27T12:25:50.793Z,10.60
2022-07-27T12:28:26.079Z,10.90
2022-07-27T12:30:57.419Z,7.80
2022-07-27T12:33:29.278Z,8.40
2022-07-27T12:36:00.685Z,7.70
2022-07-27T12:38:39.682Z,9.20
2022-07-27T12:41:10.560Z,9.50
2022-07-27T12:43:41.559Z,8.70
2022-07-27T12:46:15.925Z,9.60
2022-07-27T12:48:46.981Z,13.20
2022-07-27T12:51:23.970Z,10.60
2022-07-27T12:53:54.861Z,8.70
2022-07-27T12:56:27.550Z,8.80
2022-07-27T12:59:02.368Z,9.00
2022-07-27T13:01:33.238Z,7.50
2022-07-27T13:04:04.144Z,9.50
2022-07-27T13:06:34.773Z,7.80
2022-07-27T13:09:05.661Z,8.20
2022-07-27T13:11:36.138Z,8.50
2022-07-27T13:14:08.104Z,8.70
2022-07-27T13:16:38.666Z,7.90
2022-07-27T13:19:09.907Z,8.00
2022-07-27T13:21:41.120Z,9.60
2022-07-27T13:24:11.922Z,8.00
2022-07-27T13:26:43.199Z,11.60
2022-07-27T13:29:14.502Z,7.90
2022-07-27T13:31:52.276Z,8.60
2022-07-27T13:34:27.478Z,8.50
2022-07-27T13:36:58.418Z,8.80
2022-07-27T13:39:29.975Z,7.20
2022-07-27T13:42:05.046Z,11.30
2022-07-27T13:45:00.932Z,7.40
2022-07-27T13:47:26.755Z,6.70
2022-07-27T13:49:58.141Z,11.10
2022-07-27T13:52:28.738Z,10.30
2022-07-27T13:54:59.565Z,7.40
2022-07-27T13:57:30.229Z,7.60
2022-07-27T14:00:01.709Z,8.10
2022-07-27T14:02:35.515Z,9.90
2022-07-27T14:05:09.064Z,8.40
2022-07-27T14:07:39.682Z,6.30
2022-07-27T14:10:30.383Z,7.20
2022-07-27T14:13:07.386Z,14.80
2022-07-27T14:15:50.736Z,10.20
2022-07-27T14:18:27.665Z,8.80
2022-07-27T14:20:59.387Z,8.40
2022-07-27T14:23:30.670Z,9.90
2022-07-27T14:26:02.321Z,8.70
2022-07-27T14:28:33.364Z,8.60
2022-07-27T14:31:04.652Z,7.30
2022-07-27T14:33:37.266Z,8.30
2022-07-27T14:36:08.947Z,13.50
2022-07-27T14:38:40.290Z,7.80
2022-07-27T14:41:11.327Z,11.70
2022-07-27T14:43:41.856Z,7.90
2022-07-27T14:46:12.664Z,8.40
2022-07-27T14:49:05.217Z,8.50
2022-07-27T14:51:34.124Z,6.70
2022-07-27T14:54:05.068Z,7.70
2022-07-27T14:56:36.926Z,6.40
2022-07-27T14:59:07.359Z,7.30
2022-07-27T15:01:40.111Z,10.10
2022-07-27T15:04:10.763Z,10.10
2022-07-27T15:06:41.521Z,8.70
2022-07-27T15:09:12.485Z,10.00
2022-07-27T15:11:43.797Z,11.70
2022-07-27T15:14:17.276Z,8.40
2022-07-27T15:16:48.395Z,9.30
2022-07-27T15:19:20.025Z,13.10
2022-07-27T15:21:53.064Z,9.30
2022-07-27T15:24:23.697Z,11.60
2022-07-27T15:26:54.425Z,7.90
2022-07-27T15:29:25.261Z,10.40
2022-07-27T15:31:56.274Z,8.30
2022-07-27T15:34:27.032Z,9.40
2022-07-27T15:36:58.771Z,9.30
2022-07-27T15:39:29.838Z,11.00
2022-07-27T15:42:00.830Z,13.10
2022-07-27T15:44:31.606Z,10.50
2022-07-27T15:47:02.897Z,9.50
2022-07-27T15:49:33.581Z,8.40
2022-07-27T15:52:04.827Z,11.30
2022-07-27T15:54:42.141Z,10.90
2022-07-27T15:57:16.642Z,7.90
2022-07-27T15:59:47.264Z,8.40
2022-07-27T16:02:24.571Z,9.20
2022-07-27T16:04:55.836Z,8.30
2022-07-27T16:07:26.605Z,8.70
2022-07-27T16:09:57.266Z,9.20
2022-07-27T16:12:28.346Z,11.10
2022-07-27T16:14:59.464Z,9.20
2022-07-27T16:17:31.118Z,12.00
2022-07-27T16:20:01.946Z,7.10
2022-07-27T16:22:34.557Z,10.10
2022-07-27T16:27:35.186Z,8.50
2022-07-27T16:30:07.333Z,10.10
2022-07-27T16:32:37.864Z,9.30
2022-07-27T16:35:10.600Z,11.20
2022-07-27T16:37:41.476Z,11.70
2022-07-27T16:40:13.505Z,7.90
2022-07-27T16:42:44.278Z,9.10
2022-07-27T16:45:15.013Z,8.60
2022-07-27T16:47:45.738Z,8.50
2022-07-27T16:50:16.472Z,11.70
2022-07-27T16:52:47.002Z,8.90
2022-07-27T16:55:17.887Z,10.10
2022-07-27T16:57:48.668Z,12.20
2022-07-27T17:00:21.040Z,9.70
2022-07-27T17:02:51.784Z,8.80
2022-07-27T17:05:22.617Z,10.20
2022-07-27T17:07:54.470Z,9.90
2022-07-27T17:10:27.246Z,11.60
2022-07-27T17:12:58.362Z,9.50
2022-07-27T17:15:29.682Z,14.40
2022-07-27T17:18:00.620Z,10.60
2022-07-27T17:20:35.057Z,8.30
2022-07-27T17:23:06.019Z,10.50
2022-07-27T17:25:37.087Z,9.80
2022-07-27T17:28:07.816Z,12.00
2022-07-27T17:30:38.892Z,9.20
2022-07-27T17:33:09.273Z,8.60
2022-07-27T17:35:40.009Z,11.90
2022-07-27T17:38:10.516Z,11.90
2022-07-27T17:40:41.575Z,12.70
2022-07-27T17:43:13.437Z,13.60
2022-07-27T17:45:44.277Z,11.70
2022-07-27T17:48:15.212Z,11.80
2022-07-27T17:50:46.046Z,14.20
2022-07-27T17:53:16.540Z,11.70
2022-07-27T17:55:47.515Z,9.30
2022-07-27T17:58:18.346Z,12.40
2022-07-27T18:00:49.021Z,11.90
2022-07-27T18:03:19.610Z,10.20
2022-07-27T18:05:50.556Z,10.50
2022-07-27T18:08:21.282Z,11.80
2022-07-27T18:10:52.734Z,11.50
2022-07-27T18:13:23.570Z,9.70
2022-07-27T18:16:12.206Z,9.00
2022-07-27T18:18:43.707Z,11.50
2022-07-27T18:21:16.044Z,6.50
2022-07-27T18:23:46.816Z,7.90
2022-07-27T18:26:17.617Z,5.10
2022-07-27T18:28:48.244Z,7.80
2022-07-27T18:31:19.781Z,9.20
2022-07-27T18:33:51.015Z,5.50
2022-07-27T18:36:22.501Z,7.80
2022-07-27T18:38:52.903Z,6.70
2022-07-27T18:41:25.228Z,6.50
2022-07-27T18:43:55.917Z,5.90
2022-07-27T18:46:27.243Z,6.70
2022-07-27T18:48:57.707Z,4.30
2022-07-27T18:51:30.981Z,7.40
2022-07-27T18:54:01.864Z,6.40
2022-07-27T18:56:32.659Z,7.10
2022-07-27T18:59:03.421Z,6.60
2022-07-27T19:01:34.277Z,4.50
2022-07-27T19:04:04.995Z,7.60
2022-07-27T19:06:36.364Z,7.50
2022-07-27T19:09:07.035Z,5.10
2022-07-27T19:11:38.289Z,8.90
2022-07-27T19:14:08.917Z,6.50
2022-07-27T19:16:39.813Z,9.50
2022-07-27T19:19:15.754Z,9.30
2022-07-27T19:21:49.108Z,11.00
2022-07-27T19:24:19.637Z,6.40
2022-07-27T19:26:50.412Z,11.30
2022-07-27T19:29:22.785Z,9.10
2022-07-27T19:31:53.682Z,6.50
2022-07-27T19:34:24.280Z,9.90
2022-07-27T19:36:55.352Z,6.50
2022-07-27T19:39:26.038Z,6.20
2022-07-27T19:41:58.056Z,7.90
2022-07-27T19:44:29.141Z,5.50
2022-07-27T19:47:00.034Z,6.00
2022-07-27T19:49:32.008Z,6.00
2022-07-27T19:52:04.965Z,5.30
2022-07-27T19:54:36.024Z,4.60
2022-07-27T19:57:07.148Z,5.90
2022-07-27T19:59:55.421Z,8.30
2022-07-27T20:02:28.022Z,5.80
2022-07-27T20:04:58.602Z,5.80
2022-07-27T20:07:29.332Z,5.90
2022-07-27T20:09:59.786Z,5.40
2022-07-27T20:12:30.695Z,5.50
2022-07-27T20:15:01.633Z,5.90
2022-07-27T20:17:37.292Z,5.70
2022-07-27T20:20:08.937Z,6.60
2022-07-27T20:22:41.280Z,6.30
2022-07-27T20:25:12.041Z,6.70
2022-07-27T20:27:43.224Z,4.60
2022-07-27T20:30:16.332Z,5.70
2022-07-27T20:32:47.665Z,5.00
2022-07-27T20:35:18.704Z,5.60
2022-07-27T20:37:49.394Z,6.00
2022-07-27T20:40:20.064Z,5.80
2022-07-27T20:42:51.985Z,5.40
2022-07-27T20:45:22.510Z,5.40
2022-07-27T20:47:53.243Z,5.80
2022-07-27T20:50:23.948Z,7.10
2022-07-27T20:52:54.818Z,6.60
2022-07-27T20:55:25.244Z,6.30
2022-07-27T20:57:56.292Z,5.50
2022-07-27T21:00:29.291Z,5.60
2022-07-27T21:03:00.202Z,6.00
2022-07-27T21:05:30.986Z,5.70
2022-07-27T21:08:01.985Z,7.20
2022-07-27T21:10:32.605Z,6.90
2022-07-27T21:13:03.759Z,7.00
2022-07-27T21:15:34.465Z,7.50
2022-07-27T21:18:05.376Z,5.50
2022-07-27T21:20:36.093Z,4.90
2022-07-27T21:23:24.330Z,4.60
2022-07-27T21:25:54.779Z,4.60
2022-07-27T21:30:58.279Z,9.80
2022-07-27T21:33:29.022Z,6.70
2022-07-27T21:35:59.601Z,10.00
2022-07-27T21:38:30.544Z,5.70
2022-07-27T21:41:00.923Z,5.20
2022-07-27T21:43:31.488Z,7.80
2022-07-27T21:46:02.107Z,6.40
2022-07-27T21:48:33.210Z,6.90
2022-07-27T21:51:03.896Z,5.30
2022-07-27T21:53:35.755Z,7.50
2022-07-27T21:56:06.649Z,4.70
2022-07-27T21:58:37.425Z,7.70
2022-07-27T22:01:09.386Z,6.70
2022-07-27T22:03:40.800Z,6.90
2022-07-27T22:08:42.285Z,6.20
2022-07-27T22:11:12.875Z,7.10
2022-07-27T22:13:44.083Z,5.50
2022-07-27T22:16:14.373Z,7.30
2022-07-27T22:18:45.443Z,5.40
2022-07-27T22:21:15.768Z,6.80
2022-07-27T22:23:47.215Z,8.70
2022-07-27T22:26:17.693Z,5.20
2022-07-27T22:28:48.601Z,11.30
2022-07-27T22:31:22.844Z,10.20
2022-07-27T22:33:54.063Z,6.50
2022-07-27T22:36:24.464Z,7.10
2022-07-27T22:38:55.753Z,6.60
2022-07-27T22:41:26.136Z,6.20
2022-07-27T22:43:57.384Z,6.90
2022-07-27T22:46:30.091Z,7.00
2022-07-27T22:49:00.989Z,5.70
2022-07-27T22:51:49.635Z,9.50
2022-07-27T22:54:22.841Z,6.10
2022-07-27T22:56:53.510Z,7.20
2022-07-27T22:59:24.067Z,7.70
2022-07-27T23:01:54.705Z,8.30
2022-07-27T23:04:26.300Z,6.80
2022-07-27T23:06:56.821Z,5.50
2022-07-27T23:09:27.736Z,5.50
2022-07-27T23:11:58.075Z,4.40
2022-07-27T23:14:30.242Z,6.50
2022-07-27T23:17:00.859Z,5.90
2022-07-27T23:19:31.754Z,6.20
2022-07-27T23:22:02.236Z,5.40
2022-07-27T23:24:33.587Z,5.10
2022-07-27T23:27:04.701Z,6.00
2022-07-27T23:29:35.703Z,6.00
2022-07-27T23:32:08.554Z,5.50
2022-07-27T23:34:40.407Z,5.50
2022-07-27T23:37:11.041Z,4.40
2022-07-27T23:39:41.976Z,8.00
2022-07-27T23:42:12.312Z,6.80
2022-07-27T23:44:43.236Z,5.50
2022-07-27T23:47:13.871Z,6.20
2022-07-27T23:49:45.224Z,6.10
2022-07-27T23:52:15.649Z,10.40
2022-07-27T23:54:47.097Z,5.30
2022-07-27T23:57:17.520Z,5.10
2022-07-27T23:59:48.410Z,6.40
